Time;durP1;ratioP1;P1;durP2;ratioP2;P2;SDS_P1;SDS_P2;PMS_P1;PMS_P2;Temp;Humidity;BMP_temperature;BMP_pressure;BME280_temperature;BME280_humidity;BME280_pressure;Samples;Min_cycle;Max_cycle;Signal;HPM_P1;HPM_P2
2023/01/20 00:01:57;;;;;;;2.07;1.80;;;;;;;22.07;37.90;94109.84;6211636;28;104494;-65
2023/01/20 00:05:00;;;;;;;1.93;1.73;;;;;;;22.07;38.06;94133.81;6212183;28;102983;-64
2023/01/20 00:08:06;;;;;;;1.80;1.60;;;;;;;21.97;37.88;94128.88;6210092;28;102965;-65
2023/01/20 00:11:11;;;;;;;1.90;1.70;;;;;;;22.06;37.69;94156.25;6205157;28;103768;-64
2023/01/20 00:14:17;;;;;;;2.00;1.50;;;;;;;22.06;38.26;94169.56;6211356;28;103286;-64
2023/01/20 00:17:20;;;;;;;1.90;1.70;;;;;;;22.06;38.13;94188.22;6211971;28;104159;-64
2023/01/20 00:20:23;;;;;;;2.27;1.63;;;;;;;22.05;37.78;94168.00;6202306;28;107046;-64
2023/01/20 00:23:26;;;;;;;2.33;1.50;;;;;;;21.94;37.97;94116.22;6212448;28;103044;-64
2023/01/20 00:26:29;;;;;;;1.87;1.67;;;;;;;22.04;37.88;94062.53;6212896;28;103289;-64
2023/01/20 00:29:33;;;;;;;2.17;1.70;;;;;;;22.05;37.98;94052.66;6211797;28;103332;-65
2023/01/20 00:32:38;;;;;;;1.40;1.30;;;;;;;22.04;37.88;94024.47;6201883;28;103140;-65
2023/01/20 00:35:41;;;;;;;1.70;1.60;;;;;;;21.96;37.92;94002.13;6212534;28;103885;-65
2023/01/20 00:38:46;;;;;;;1.87;1.77;;;;;;;22.04;37.44;93987.19;6212099;28;104126;-65
2023/01/20 00:41:49;;;;;;;2.17;1.80;;;;;;;22.03;37.90;93969.63;6207131;28;104111;-65
2023/01/20 00:44:56;;;;;;;2.00;1.80;;;;;;;22.01;37.73;93943.31;6206552;28;103086;-65
2023/01/20 00:47:59;;;;;;;1.83;1.53;;;;;;;22.01;37.96;93948.66;6212348;28;103667;-65
2023/01/20 00:51:02;;;;;;;1.90;1.80;;;;;;;21.99;37.66;93947.41;6212428;28;103067;-65
2023/01/20 00:54:05;;;;;;;1.90;1.80;;;;;;;21.94;37.56;93948.41;6201722;28;103110;-65
2023/01/20 00:57:08;;;;;;;2.20;1.90;;;;;;;21.99;37.56;93950.84;6211812;28;103666;-65
2023/01/20 01:00:17;;;;;;;1.70;1.60;;;;;;;21.95;37.58;93943.84;6211122;28;103093;-65
2023/01/20 01:03:21;;;;;;;1.93;1.50;;;;;;;21.96;37.61;93948.06;6212961;28;103203;-65
2023/01/20 01:06:26;;;;;;;1.80;1.50;;;;;;;21.99;37.38;93937.53;6200801;28;103267;-65
2023/01/20 01:09:31;;;;;;;1.60;1.50;;;;;;;21.99;37.49;93950.84;6212015;28;103925;-65
2023/01/20 01:12:36;;;;;;;1.50;1.40;;;;;;;21.95;37.35;93941.97;6211871;28;103225;-65
2023/01/20 01:15:48;;;;;;;1.73;1.50;;;;;;;21.89;37.49;93939.88;6206554;28;104675;-65
2023/01/20 01:18:53;;;;;;;1.83;1.73;;;;;;;21.86;37.74;93940.53;6211098;28;105141;-65
2023/01/20 01:21:56;;;;;;;1.57;1.40;;;;;;;21.98;37.34;93957.28;6208078;28;104794;-65
2023/01/20 01:24:59;;;;;;;1.87;1.50;;;;;;;21.97;37.19;93963.72;6205458;28;103182;-65
2023/01/20 01:28:05;;;;;;;1.67;1.30;;;;;;;21.96;37.27;93954.19;6197301;28;104066;-65
2023/01/20 01:31:12;;;;;;;1.50;1.10;;;;;;;21.96;37.47;93948.06;6208172;28;104171;-65
2023/01/20 01:34:15;;;;;;;2.20;1.53;;;;;;;21.96;37.32;93943.53;6205609;28;103357;-65
2023/01/20 01:37:20;;;;;;;1.07;0.97;;;;;;;21.97;37.16;93939.75;6211949;28;104566;-66
2023/01/20 01:40:37;;;;;;;1.47;1.30;;;;;;;21.96;37.17;93929.44;6200050;28;103068;-65
2023/01/20 01:44:04;;;;;;;1.40;1.30;;;;;;;21.94;37.64;93918.34;6211783;28;103803;-65
2023/01/20 01:47:09;;;;;;;1.60;1.10;;;;;;;21.96;37.88;93937.41;6211289;28;103088;-65
2023/01/20 01:50:19;;;;;;;1.43;1.27;;;;;;;21.95;37.21;93941.97;6184662;28;102961;-65
2023/01/20 01:53:22;;;;;;;1.23;1.10;;;;;;;21.81;37.30;93928.94;6212348;28;103498;-65
2023/01/20 01:56:27;;;;;;;1.40;1.20;;;;;;;21.94;37.54;93940.41;6214769;28;103346;-65
2023/01/20 01:59:30;;;;;;;1.17;1.03;;;;;;;21.95;37.34;93930.53;6215746;28;104123;-65
2023/01/20 02:02:35;;;;;;;1.90;1.13;;;;;;;21.93;37.58;93933.53;6205405;28;104614;-65
2023/01/20 02:05:39;;;;;;;1.60;1.10;;;;;;;21.91;37.62;93933.09;6215396;28;102913;-65
2023/01/20 02:08:45;;;;;;;1.80;1.17;;;;;;;21.86;37.57;93921.88;6207923;28;103539;-65
2023/01/20 02:11:53;;;;;;;1.00;0.90;;;;;;;21.91;37.43;93919.78;6209738;28;103914;-65
2023/01/20 02:15:01;;;;;;;1.97;1.30;;;;;;;21.90;37.64;93902.25;6213459;28;103880;-65
2023/01/20 02:18:31;;;;;;;1.60;1.23;;;;;;;21.81;37.11;93877.56;6215219;28;103023;-64
2023/01/20 02:22:01;;;;;;;0.93;0.83;;;;;;;21.91;37.42;93905.69;6215346;28;103253;-65
2023/01/20 02:25:49;;;;;;;1.53;1.13;;;;;;;21.89;37.58;93902.56;6203928;28;103048;-63
2023/01/20 02:29:21;;;;;;;2.43;1.20;;;;;;;21.90;37.20;93898.81;6214253;28;102872;-64
2023/01/20 02:32:37;;;;;;;1.23;0.90;;;;;;;21.89;37.59;93889.25;6211751;28;104168;-63
2023/01/20 02:35:45;;;;;;;0.80;0.80;;;;;;;21.88;37.55;93877.84;6204759;28;105095;-63
2023/01/20 02:38:56;;;;;;;0.90;0.80;;;;;;;21.88;37.29;93859.19;6214307;28;102973;-63
2023/01/20 02:42:08;;;;;;;1.20;0.80;;;;;;;21.88;37.43;93858.41;6208506;28;103517;-63
2023/01/20 02:45:24;;;;;;;1.57;1.00;;;;;;;21.86;37.20;93844.66;6209003;28;103334;-64
2023/01/20 02:48:38;;;;;;;1.20;0.87;;;;;;;21.87;37.14;93849.66;6202883;28;104488;-64
2023/01/20 02:51:50;;;;;;;1.17;0.80;;;;;;;21.88;37.23;93848.53;6206932;28;103561;-64
2023/01/20 02:54:59;;;;;;;1.27;1.10;;;;;;;21.87;37.41;93844.31;6212421;28;104450;-64
2023/01/20 02:58:07;;;;;;;1.90;1.03;;;;;;;21.85;37.15;93841.22;6195553;28;104768;-63
2023/01/20 03:01:14;;;;;;;1.40;0.90;;;;;;;21.77;37.90;93820.75;6209256;28;103044;-64
2023/01/20 03:04:23;;;;;;;1.27;0.80;;;;;;;21.87;37.38;93848.88;6208488;28;104893;-64
2023/01/20 03:07:29;;;;;;;1.20;0.67;;;;;;;21.87;37.68;93854.19;6207813;28;104248;-64
2023/01/20 03:10:35;;;;;;;1.60;0.97;;;;;;;21.87;37.58;93859.53;6204832;28;103539;-63
2023/01/20 03:13:44;;;;;;;0.77;0.67;;;;;;;21.86;37.25;93865.97;6213597;28;103127;-64
2023/01/20 03:16:49;;;;;;;1.40;1.00;;;;;;;21.85;37.49;93859.88;6214018;28;103940;-64
2023/01/20 03:19:54;;;;;;;0.80;0.67;;;;;;;21.86;37.62;93855.31;6202998;28;103037;-64
2023/01/20 03:22:57;;;;;;;1.23;0.50;;;;;;;21.85;37.51;93856.41;6211838;28;104158;-63
2023/01/20 03:26:07;;;;;;;1.13;0.90;;;;;;;21.84;37.36;93850.28;6212907;28;103020;-63
2023/01/20 03:29:11;;;;;;;1.23;0.80;;;;;;;21.85;36.99;93849.22;6212606;28;103232;-63
2023/01/20 03:32:15;;;;;;;0.80;0.80;;;;;;;21.84;37.45;93858.28;6202897;28;103165;-63
2023/01/20 03:35:20;;;;;;;0.87;0.57;;;;;;;21.82;36.97;93857.84;6212589;28;103208;-64
2023/01/20 03:38:23;;;;;;;0.93;0.80;;;;;;;21.79;37.17;93847.81;6211599;28;103031;-64
2023/01/20 03:41:35;;;;;;;0.97;0.90;;;;;;;21.82;37.17;93857.84;6207709;28;103457;-64
2023/01/20 03:44:57;;;;;;;1.20;0.80;;;;;;;21.81;37.08;93856.25;6196380;28;103470;-63
2023/01/20 03:48:10;;;;;;;1.10;0.70;;;;;;;21.81;37.13;93856.25;6213544;28;104150;-64
2023/01/20 03:51:24;;;;;;;1.07;0.70;;;;;;;21.69;37.41;93821.66;6213064;28;103255;-64
2023/01/20 03:54:33;;;;;;;0.90;0.67;;;;;;;21.83;37.39;93827.44;6202092;28;103183;-63
2023/01/20 03:57:41;;;;;;;0.83;0.80;;;;;;;21.81;37.25;93816.31;6212300;28;103964;-64
2023/01/20 04:00:47;;;;;;;0.90;0.80;;;;;;;21.80;37.09;93823.53;6212826;28;104337;-64
2023/01/20 04:03:54;;;;;;;0.87;0.70;;;;;;;21.81;37.21;93821.63;6196753;28;103636;-64
2023/01/20 04:07:00;;;;;;;0.90;0.70;;;;;;;21.81;37.26;93813.66;6205675;28;103049;-64
2023/01/20 04:10:10;;;;;;;1.10;0.87;;;;;;;21.76;37.27;93813.88;6212892;28;104076;-63
2023/01/20 04:13:13;;;;;;;0.73;0.60;;;;;;;21.81;37.18;93824.31;6210258;28;102983;-64
2023/01/20 04:16:20;;;;;;;1.40;1.10;;;;;;;21.78;37.25;93807.09;6201040;28;103918;-63
2023/01/20 04:19:26;;;;;;;0.87;0.70;;;;;;;21.78;37.12;93791.13;6213276;28;102811;-64
2023/01/20 04:22:43;;;;;;;1.33;0.60;;;;;;;21.80;37.16;93782.81;6209686;28;103374;-63
2023/01/20 04:25:46;;;;;;;0.60;0.60;;;;;;;21.65;36.96;93746.97;6211780;28;103200;-63
2023/01/20 04:28:52;;;;;;;1.20;0.87;;;;;;;21.78;37.14;93764.50;6199466;28;103207;-63
2023/01/20 04:31:59;;;;;;;0.90;0.80;;;;;;;21.71;37.43;93764.31;6210743;28;104454;-64
2023/01/20 04:35:02;;;;;;;1.30;0.93;;;;;;;21.78;37.22;93764.50;6207379;28;104508;-64
2023/01/20 04:38:06;;;;;;;2.20;1.20;;;;;;;21.78;36.86;93772.50;6200322;28;105042;-63
2023/01/20 04:41:11;;;;;;;1.63;1.53;;;;;;;21.76;36.85;93756.06;6208543;28;103165;-64
2023/01/20 04:44:14;;;;;;;1.70;1.60;;;;;;;21.77;37.01;93770.94;6210444;28;103076;-63
2023/01/20 04:47:17;;;;;;;1.70;1.60;;;;;;;21.78;37.07;93769.84;6211118;28;104323;-63
2023/01/20 04:50:20;;;;;;;2.40;2.20;;;;;;;21.78;37.22;93777.81;6201084;28;105476;-63
2023/01/20 04:53:24;;;;;;;2.83;2.53;;;;;;;21.76;37.33;93763.28;6205639;28;104162;-64
2023/01/20 04:56:27;;;;;;;2.50;2.30;;;;;;;21.78;37.37;93766.38;6207935;28;103081;-63
2023/01/20 04:59:32;;;;;;;3.13;2.93;;;;;;;21.75;37.38;93762.50;6212106;28;104863;-64
2023/01/20 05:02:39;;;;;;;3.30;3.00;;;;;;;21.75;37.45;93759.06;6203074;28;103067;-63
2023/01/20 05:05:42;;;;;;;3.90;3.60;;;;;;;21.77;36.94;93768.28;6210433;28;103143;-64
2023/01/20 05:08:47;;;;;;;3.70;3.40;;;;;;;21.77;37.20;93791.47;6210592;28;103346;-63
2023/01/20 05:11:50;;;;;;;3.50;3.20;;;;;;;21.77;37.49;93781.59;6199144;28;103200;-63
2023/01/20 05:14:53;;;;;;;3.70;3.40;;;;;;;21.77;36.85;93783.47;6206117;28;104005;-63
2023/01/20 05:17:56;;;;;;;3.63;3.10;;;;;;;21.76;37.08;93789.91;6207794;28;103264;-63
2023/01/20 05:21:00;;;;;;;3.60;3.30;;;;;;;21.76;37.75;93792.59;6209695;28;103337;-63
2023/01/20 05:24:05;;;;;;;3.67;3.37;;;;;;;21.76;37.65;93805.91;6193616;28;103460;-63
2023/01/20 05:27:08;;;;;;;3.50;3.30;;;;;;;21.75;37.19;93809.66;6204592;28;103008;-63
2023/01/20 05:30:11;;;;;;;3.60;3.30;;;;;;;21.67;37.69;93799.88;6209014;28;104228;-63
2023/01/20 05:33:17;;;;;;;3.87;3.57;;;;;;;21.75;37.71;93822.97;6209500;28;104018;-64
2023/01/20 05:36:20;;;;;;;3.67;3.37;;;;;;;21.72;37.42;93810.34;6205052;28;103073;-64
2023/01/20 05:39:25;;;;;;;3.70;3.40;;;;;;;21.73;37.16;93812.66;6208416;28;103957;-65
2023/01/20 05:42:28;;;;;;;3.20;2.90;;;;;;;21.74;37.73;93832.09;6209140;28;103949;-63
2023/01/20 05:45:31;;;;;;;4.40;4.07;;;;;;;21.74;37.15;93848.06;6204071;28;106085;-63
2023/01/20 05:48:35;;;;;;;4.03;3.40;;;;;;;21.75;37.41;93857.59;6214942;28;103390;-63
2023/01/20 05:51:40;;;;;;;3.50;3.30;;;;;;;21.73;37.26;93846.50;6215557;28;106566;-63
2023/01/20 05:54:45;;;;;;;3.70;3.40;;;;;;;21.73;37.39;93839.28;6215582;28;104168;-63
2023/01/20 05:57:48;;;;;;;4.27;3.90;;;;;;;21.72;37.60;93824.44;6204134;28;104287;-63
2023/01/20 06:00:53;;;;;;;4.40;4.00;;;;;;;21.72;37.43;93811.13;6215303;28;104391;-63
2023/01/20 06:03:56;;;;;;;3.90;3.60;;;;;;;21.69;37.33;93803.03;6213828;28;103488;-63
2023/01/20 06:06:59;;;;;;;4.70;4.33;;;;;;;21.10;37.20;93721.69;6208587;28;102985;-63
2023/01/20 06:10:04;;;;;;;4.90;4.43;;;;;;;21.72;37.10;93821.00;6207600;28;102942;-64
2023/01/20 06:13:08;;;;;;;4.60;4.30;;;;;;;21.70;37.26;93839.19;6212194;28;104148;-63
2023/01/20 06:16:14;;;;;;;4.77;4.37;;;;;;;21.62;37.31;93824.06;6214603;28;104112;-64
2023/01/20 06:19:17;;;;;;;5.70;5.13;;;;;;;21.71;37.41;93824.75;6201507;28;106875;-64
2023/01/20 06:22:20;;;;;;;4.90;4.50;;;;;;;21.72;37.69;93835.06;6214543;28;103546;-63
2023/01/20 06:25:25;;;;;;;5.83;5.33;;;;;;;21.72;37.40;93842.28;6213866;28;104201;-64
2023/01/20 06:28:28;;;;;;;5.53;5.13;;;;;;;21.71;37.18;93840.75;6208785;28;103259;-64
2023/01/20 06:31:31;;;;;;;5.57;4.83;;;;;;;21.71;37.35;93836.19;6203560;28;102797;-63
2023/01/20 06:34:35;;;;;;;5.67;5.27;;;;;;;21.71;37.29;93846.06;6213403;28;106184;-63
2023/01/20 06:37:38;;;;;;;6.27;5.70;;;;;;;21.71;37.40;93857.50;6212069;28;104025;-63
2023/01/20 06:40:42;;;;;;;5.70;5.20;;;;;;;21.69;37.38;93858.94;6209858;28;103563;-63
2023/01/20 06:43:46;;;;;;;5.63;5.17;;;;;;;21.69;38.35;93842.97;6206952;28;103313;-64
2023/01/20 06:46:49;;;;;;;6.97;5.33;;;;;;;21.68;37.93;93815.56;6211519;28;103058;-63
2023/01/20 06:49:52;;;;;;;5.73;5.23;;;;;;;21.70;37.65;93802.69;6211815;28;102943;-64
2023/01/20 06:52:55;;;;;;;5.97;5.47;;;;;;;21.70;38.15;93808.00;6201023;28;103356;-64
2023/01/20 06:56:01;;;;;;;5.73;5.23;;;;;;;21.70;37.93;93797.38;6211528;28;104071;-63
2023/01/20 06:59:06;;;;;;;5.70;5.20;;;;;;;21.70;38.42;93778.72;6210742;28;103831;-63
2023/01/20 07:02:11;;;;;;;17.20;16.13;;;;;;;21.69;39.05;93793.16;6211368;28;104285;-63
2023/01/20 07:05:15;;;;;;;21.83;20.40;;;;;;;21.73;39.18;93780.72;6198404;28;103073;-62
2023/01/20 07:08:18;;;;;;;21.87;20.47;;;;;;;21.69;39.36;93776.41;6206299;28;102900;-63
2023/01/20 07:11:30;;;;;;;19.97;18.57;;;;;;;21.76;40.10;93797.91;6213391;28;103100;-62
2023/01/20 07:14:33;;;;;;;16.30;14.90;;;;;;;21.77;39.73;93802.91;6207759;28;104112;-64
2023/01/20 07:17:39;;;;;;;14.70;13.53;;;;;;;21.76;39.92;93785.38;6208637;28;103119;-62
2023/01/20 07:20:42;;;;;;;12.20;11.10;;;;;;;21.74;40.06;93771.63;6212677;28;103123;-62
2023/01/20 07:23:46;;;;;;;12.30;11.30;;;;;;;21.75;39.99;93777.72;6223296;28;103108;-62
2023/01/20 07:26:52;;;;;;;12.03;11.00;;;;;;;21.73;39.96;93779.94;6202161;28;104056;-63
2023/01/20 07:29:55;;;;;;;9.20;8.40;;;;;;;21.75;40.07;93780.38;6213270;28;103127;-62
2023/01/20 07:32:58;;;;;;;8.10;7.50;;;;;;;21.75;40.38;93793.69;6211123;28;103211;-63
2023/01/20 07:36:01;;;;;;;7.90;7.30;;;;;;;21.74;39.83;93782.25;6212362;28;104183;-63
2023/01/20 07:39:04;;;;;;;7.67;7.07;;;;;;;21.71;40.62;93785.59;6201617;28;103971;-63
2023/01/20 07:42:10;;;;;;;9.37;6.13;;;;;;;21.74;40.40;93798.25;6211245;28;103745;-63
2023/01/20 07:45:14;;;;;;;7.03;6.53;;;;;;;21.73;40.14;93793.25;6213478;28;103442;-64
2023/01/20 07:48:20;;;;;;;6.80;6.30;;;;;;;21.72;40.61;93795.13;6205253;28;104520;-64
2023/01/20 07:51:23;;;;;;;6.33;5.47;;;;;;;21.71;39.53;93790.94;6209332;28;104143;-64
2023/01/20 07:54:26;;;;;;;5.87;5.37;;;;;;;21.58;39.11;93789.38;6211541;28;103060;-63
2023/01/20 07:57:30;;;;;;;5.87;4.77;;;;;;;21.64;38.86;93819.19;6205460;28;104180;-63
2023/01/20 08:00:34;;;;;;;6.73;5.07;;;;;;;21.10;39.27;93819.34;6199549;28;103043;-61
2023/01/20 08:03:37;;;;;;;5.10;4.60;;;;;;;20.75;39.12;93819.66;6212078;28;102911;-61
2023/01/20 08:06:40;;;;;;;4.63;4.30;;;;;;;20.49;39.31;93813.75;6211676;28;104475;-61
2023/01/20 08:09:43;;;;;;;5.27;4.13;;;;;;;20.47;39.06;93810.66;6213117;28;103660;-61
2023/01/20 08:12:48;;;;;;;4.50;4.00;;;;;;;20.46;38.89;93785.19;6199948;28;104288;-63
2023/01/20 08:16:00;;;;;;;5.53;4.40;;;;;;;20.45;38.90;93771.13;6209551;28;104038;-62
2023/01/20 08:19:03;;;;;;;5.03;4.30;;;;;;;20.52;38.84;93760.00;6208615;28;103091;-61
2023/01/20 08:22:07;;;;;;;5.83;5.23;;;;;;;20.51;38.62;93747.81;6202664;28;104176;-62
2023/01/20 08:25:10;;;;;;;6.40;5.20;;;;;;;20.47;38.69;93757.50;6208658;28;103260;-61
2023/01/20 08:28:14;;;;;;;5.40;5.00;;;;;;;20.40;38.70;93757.28;6210168;28;103024;-61
2023/01/20 08:31:21;;;;;;;4.77;4.37;;;;;;;20.42;38.20;93755.06;6211683;28;103217;-61
2023/01/20 08:34:27;;;;;;;4.13;3.73;;;;;;;20.35;38.60;93750.28;6200740;28;103333;-61
2023/01/20 08:37:30;;;;;;;4.67;3.77;;;;;;;20.36;38.46;93751.06;6211074;28;102761;-62
2023/01/20 08:40:33;;;;;;;3.80;3.40;;;;;;;20.35;38.16;93737.00;6209999;28;104491;-61
2023/01/20 08:43:38;;;;;;;3.90;3.50;;;;;;;20.35;38.15;93717.63;6202173;28;103213;-61
2023/01/20 08:46:42;;;;;;;4.70;4.10;;;;;;;20.25;38.39;93716.91;6201153;28;103177;-62
2023/01/20 08:49:45;;;;;;;6.87;3.80;;;;;;;20.18;38.37;93708.69;6212026;28;103565;-61
2023/01/20 08:52:50;;;;;;;3.07;2.77;;;;;;;20.24;38.28;93718.03;6212353;28;104128;-62
2023/01/20 08:55:56;;;;;;;3.40;3.10;;;;;;;20.25;38.04;93708.94;6201461;28;104118;-61
2023/01/20 08:59:01;;;;;;;4.33;2.53;;;;;;;20.26;38.24;93715.03;6211149;28;104209;-62
2023/01/20 09:02:04;;;;;;;3.20;2.27;;;;;;;20.26;38.25;93707.06;6211021;28;103989;-63
2023/01/20 09:05:08;;;;;;;4.30;2.87;;;;;;;20.70;39.45;93686.19;6211158;28;103144;-64
2023/01/20 09:08:12;;;;;;;5.13;2.73;;;;;;;21.03;40.10;93699.41;6201153;28;103389;-63
2023/01/20 09:11:17;;;;;;;2.40;2.20;;;;;;;21.17;39.76;93711.31;6211071;28;103169;-63
2023/01/20 09:14:24;;;;;;;3.17;2.47;;;;;;;21.27;39.89;93719.94;6211618;28;103002;-63
2023/01/20 09:17:27;;;;;;;5.93;2.87;;;;;;;21.35;39.53;93717.19;6193792;28;103014;-63
2023/01/20 09:20:30;;;;;;;4.90;2.40;;;;;;;21.38;40.06;93703.22;6185616;28;103761;-63
2023/01/20 09:23:34;;;;;;;7.13;2.70;;;;;;;21.34;38.81;93699.66;6208667;28;102987;-63
2023/01/20 09:26:40;;;;;;;2.40;2.00;;;;;;;21.35;39.41;93695.91;6211977;28;103366;-64
2023/01/20 09:29:44;;;;;;;2.57;2.30;;;;;;;21.20;38.56;93668.06;6200362;28;103304;-65
2023/01/20 09:32:51;;;;;;;4.70;2.40;;;;;;;21.36;39.54;93681.47;6210174;28;103204;-64
2023/01/20 09:35:55;;;;;;;2.03;1.70;;;;;;;21.43;39.00;93680.91;6210254;28;103227;-63
2023/01/20 09:45:56;;;;;;;6.17;2.73;;;;;;;21.62;41.69;93675.00;6209397;28;103415;-63
2023/01/20 09:56:10;;;;;;;2.43;2.07;;;;;;;21.86;41.79;93661.69;6209029;28;103370;-63
2023/01/20 09:59:22;;;;;;;3.30;2.20;;;;;;;21.94;42.42;93647.44;6210380;28;104702;-63
2023/01/20 10:02:33;;;;;;;3.73;2.30;;;;;;;22.02;42.45;93637.75;6207390;28;104000;-63
2023/01/20 10:05:39;;;;;;;3.57;2.40;;;;;;;22.15;42.63;93641.13;6187341;28;102891;-63
2023/01/20 10:08:48;;;;;;;3.47;2.50;;;;;;;22.21;42.23;93629.91;6208890;28;104239;-63
2023/01/20 10:12:12;;;;;;;4.83;2.83;;;;;;;22.22;42.73;93628.00;6202662;28;104626;-63
2023/01/20 10:15:20;;;;;;;4.87;4.57;;;;;;;22.28;43.36;93602.66;6194566;28;104416;-63
2023/01/20 10:18:35;;;;;;;4.50;4.20;;;;;;;22.36;43.63;93561.75;6207867;28;103017;-63
2023/01/20 10:21:43;;;;;;;4.63;4.30;;;;;;;22.48;43.75;93584.88;6203650;28;103080;-64
2023/01/20 10:24:54;;;;;;;4.60;4.30;;;;;;;22.40;44.53;93592.72;6209532;28;103155;-63
2023/01/20 10:28:08;;;;;;;4.23;3.50;;;;;;;22.42;44.47;93603.03;6195812;28;103273;-63
2023/01/20 10:31:17;;;;;;;3.53;3.30;;;;;;;22.42;44.73;93600.34;6196878;28;103450;-64
2023/01/20 10:34:22;;;;;;;3.83;3.60;;;;;;;22.40;44.54;93611.38;6205320;28;103202;-64
2023/01/20 10:37:26;;;;;;;3.67;3.37;;;;;;;22.33;44.68;93610.41;6193739;28;104049;-63
2023/01/20 10:40:38;;;;;;;2.90;2.70;;;;;;;22.29;44.84;93594.31;6212538;28;103962;-64
2023/01/20 10:43:41;;;;;;;5.20;2.67;;;;;;;22.16;45.41;93592.84;6211338;28;103556;-65
2023/01/20 10:47:11;;;;;;;2.50;2.30;;;;;;;22.20;45.92;93607.03;6211635;28;103177;-64
2023/01/20 10:50:46;;;;;;;3.90;2.80;;;;;;;21.99;44.08;93603.78;6202756;28;103357;-65
2023/01/20 10:54:05;;;;;;;2.50;2.30;;;;;;;21.83;42.92;93603.75;6198523;28;103099;-64
2023/01/20 10:57:13;;;;;;;2.27;2.03;;;;;;;21.76;43.69;93603.53;5333163;28;10000538;-65
2023/01/20 11:00:22;;;;;;;1.83;1.73;;;;;;;21.81;43.23;93593.41;6206026;27;103779;-65
2023/01/20 11:03:37;;;;;;;3.47;1.80;;;;;;;21.86;43.43;93583.69;6214319;28;104694;-64
2023/01/20 11:06:41;;;;;;;2.17;1.90;;;;;;;21.89;43.15;93580.31;6207436;28;104609;-65
2023/01/20 11:09:47;;;;;;;2.25;2.00;;;;;;;21.91;43.07;93578.88;5334918;28;10000772;-63
2023/01/20 11:12:53;;;;;;;1.80;1.58;;;;;;;21.95;43.73;93598.38;5335444;27;10000774;-64
2023/01/20 11:16:01;;;;;;;2.20;1.80;;;;;;;21.94;43.24;93594.16;6233028;28;102864;-63
2023/01/20 11:19:06;;;;;;;1.83;1.50;;;;;;;21.97;43.17;93588.16;6225923;28;103612;-63
2023/01/20 11:22:19;;;;;;;1.90;1.40;;;;;;;21.94;43.63;93575.53;6226395;27;103230;-63
2023/01/20 11:25:25;;;;;;;1.83;1.60;;;;;;;21.98;43.08;93581.72;6238209;28;102757;-63
2023/01/20 11:28:36;;;;;;;2.20;1.60;;;;;;;22.00;43.07;93592.78;6220359;28;102840;-65
2023/01/20 11:31:43;;;;;;;1.47;1.30;;;;;;;21.99;42.79;93596.56;6212691;28;102753;-65
2023/01/20 11:34:49;;;;;;;1.57;1.40;;;;;;;21.87;43.30;93579.91;6202244;28;103758;-65
2023/01/20 11:37:53;;;;;;;2.13;1.37;;;;;;;21.98;42.98;93588.94;6214961;28;102749;-64
2023/01/20 11:40:57;;;;;;;2.87;1.37;;;;;;;21.99;43.19;93577.94;6216482;28;102867;-65
2023/01/20 11:44:01;;;;;;;1.40;1.30;;;;;;;21.96;43.16;93594.59;6210295;28;103121;-65
2023/01/20 11:47:23;;;;;;;1.73;1.20;;;;;;;21.95;42.70;93606.38;6204500;28;102863;-65
2023/01/20 11:53:44;;;;;;;1.43;1.20;;;;;;;21.79;42.64;93592.19;6269202;22;105081;-78
2023/01/20 11:56:52;;;;;;;1.70;1.30;;;;;;;21.90;42.68;93609.28;6160340;28;103111;-77
2023/01/20 11:59:56;;;;;;;1.70;1.00;;;;;;;21.71;42.59;93572.59;6164481;28;102715;-77
2023/01/20 12:03:02;;;;;;;2.50;1.50;;;;;;;21.94;42.49;93615.47;6165865;28;102907;-78
2023/01/20 12:06:12;;;;;;;1.80;1.40;;;;;;;21.97;43.52;93614.78;6169710;28;103957;-78
2023/01/20 12:09:22;;;;;;;3.13;1.60;;;;;;;22.02;44.03;93640.44;6166768;28;103021;-78
2023/01/20 12:12:30;;;;;;;3.23;1.67;;;;;;;22.02;44.95;93649.19;6165550;28;103245;-76
2023/01/20 12:15:41;;;;;;;1.90;1.80;;;;;;;21.79;44.87;93616.94;6165126;28;102838;-77
2023/01/20 12:18:48;;;;;;;1.27;1.17;;;;;;;21.91;44.74;93637.47;6156446;28;102854;-78
2023/01/20 12:22:12;;;;;;;1.60;1.30;;;;;;;22.06;45.34;93643.97;6164676;28;102696;-78
2023/01/20 12:25:23;;;;;;;1.53;1.43;;;;;;;22.02;46.01;93635.88;6165768;28;103318;-78
2023/01/20 12:28:34;;;;;;;2.07;1.73;;;;;;;22.00;45.69;93610.66;6172125;28;103264;-77
2023/01/20 12:31:37;;;;;;;2.20;2.00;;;;;;;21.97;45.78;93625.44;6160837;28;102861;-78
2023/01/20 12:34:41;;;;;;;2.60;1.40;;;;;;;22.17;45.45;93660.22;6165936;28;102797;-78
2023/01/20 12:37:55;;;;;;;2.20;1.63;;;;;;;22.04;46.06;93651.53;6167609;28;102874;-78
2023/01/20 12:41:05;;;;;;;2.27;1.87;;;;;;;22.21;45.76;93682.44;6155557;28;103159;-77
2023/01/20 12:44:17;;;;;;;1.90;1.67;;;;;;;22.17;45.42;93684.19;6157161;28;102748;-78
2023/01/20 12:47:43;;;;;;;1.80;1.63;;;;;;;22.24;45.58;93708.38;6177404;28;103228;-78
2023/01/20 12:51:00;;;;;;;1.70;1.60;;;;;;;22.22;45.48;93708.72;6190494;22;104726;-64
2023/01/20 12:54:33;;;;;;;2.20;1.97;;;;;;;22.07;45.38;93693.47;6305581;22;104063;-78
2023/01/20 12:58:17;;;;;;;2.33;2.07;;;;;;;22.28;46.25;93725.25;6306363;23;106258;-65
2023/01/20 13:01:35;;;;;;;2.57;1.63;;;;;;;22.24;45.77;93735.03;6185124;22;104199;-62
2023/01/20 13:05:19;;;;;;;2.00;1.77;;;;;;;22.07;46.35;93712.88;6142943;28;104116;-62
2023/01/20 13:08:35;;;;;;;1.97;1.87;;;;;;;22.09;45.92;93733.84;6157476;28;103020;-63
2023/01/20 13:11:55;;;;;;;2.00;1.90;;;;;;;21.95;45.90;93723.56;6284285;22;104684;-79
2023/01/20 13:15:09;;;;;;;2.27;2.07;;;;;;;22.00;45.95;93733.97;6138433;28;102742;-80
2023/01/20 13:18:23;;;;;;;2.03;1.70;;;;;;;21.52;45.98;93673.59;6154534;28;102925;-81
2023/01/20 13:21:26;;;;;;;2.83;1.50;;;;;;;21.79;45.65;93738.66;6149786;28;103216;-81
2023/01/20 13:24:32;;;;;;;2.83;1.93;;;;;;;21.95;45.88;93768.84;6142030;28;102738;-81
2023/01/20 13:27:37;;;;;;;1.50;1.40;;;;;;;21.92;45.55;93766.84;6140506;28;103212;-81
2023/01/20 13:30:46;;;;;;;2.20;1.50;;;;;;;21.89;44.90;93764.09;6142176;28;102701;-82
2023/01/20 13:33:50;;;;;;;1.87;1.77;;;;;;;21.76;45.03;93745.44;6130599;28;102722;-81
2023/01/20 13:37:32;;;;;;;2.43;1.67;;;;;;;21.90;45.17;93765.63;6143724;28;102880;-82
2023/01/20 13:40:51;;;;;;;2.13;1.73;;;;;;;21.86;44.53;93768.19;6124563;28;103537;-81
2023/01/20 13:43:55;;;;;;;1.23;1.10;;;;;;;21.73;44.83;93748.75;6132936;28;104179;-81
2023/01/20 13:46:59;;;;;;;2.17;1.60;;;;;;;21.73;44.73;93755.97;6136711;28;103745;-81
2023/01/20 13:50:22;;;;;;;1.53;1.43;;;;;;;21.89;44.83;93782.72;6143995;28;103136;-79
2023/01/20 13:53:28;;;;;;;1.40;1.30;;;;;;;21.63;44.92;93759.06;6140108;28;104150;-80
2023/01/20 13:56:34;;;;;;;1.60;1.30;;;;;;;21.90;44.33;93822.34;6144999;28;102785;-80
2023/01/20 13:59:37;;;;;;;2.00;1.80;;;;;;;21.89;44.46;93826.13;6149906;28;103267;-79
2023/01/20 14:02:45;;;;;;;1.83;1.53;;;;;;;21.84;44.57;93814.91;6129469;28;104386;-79
2023/01/20 14:05:50;;;;;;;2.27;2.00;;;;;;;21.69;44.18;93797.69;6141148;28;103167;-81
2023/01/20 14:08:53;;;;;;;2.40;1.60;;;;;;;21.58;43.70;93791.25;6157552;28;103878;-80
2023/01/20 14:16:40;;;;;;;1.30;1.20;;;;;;;21.91;43.93;93855.84;6121649;22;104899;-65
2023/01/20 14:19:49;;;;;;;3.63;1.57;;;;;;;21.96;43.61;93862.84;6135934;28;103129;-62
2023/01/20 14:22:52;;;;;;;3.33;1.47;;;;;;;21.94;43.91;93852.53;6134965;28;103037;-62
2023/01/20 14:26:05;;;;;;;2.30;1.23;;;;;;;21.94;43.95;93843.75;6135637;28;103512;-62
2023/01/20 14:29:18;;;;;;;1.53;1.13;;;;;;;21.91;43.76;93845.19;6126070;28;103604;-62
2023/01/20 14:32:25;;;;;;;1.20;1.10;;;;;;;21.93;43.79;93866.19;6128210;28;103770;-63
2023/01/20 14:35:31;;;;;;;2.13;1.00;;;;;;;21.93;43.97;93871.50;6135810;28;103489;-62
2023/01/20 14:38:35;;;;;;;1.30;1.20;;;;;;;21.92;44.01;93864.63;6287960;22;109386;-80
2023/01/20 14:41:53;;;;;;;1.17;0.97;;;;;;;21.93;44.20;93879.50;6122810;23;104121;-79
2023/01/20 14:44:58;;;;;;;2.60;1.13;;;;;;;21.84;43.40;93865.50;6140794;28;103339;-80
2023/01/20 14:48:02;;;;;;;1.67;1.10;;;;;;;21.75;43.89;93846.94;6141067;28;103058;-80
2023/01/20 14:51:11;;;;;;;1.60;1.17;;;;;;;21.90;43.61;93885.50;6127094;28;104258;-79
2023/01/20 14:54:45;;;;;;;3.33;1.07;;;;;;;21.89;43.62;93884.72;6135682;28;103598;-79